sensor_id;sensor_type;location;lat;lon;timestamp;P1;durP1;ratioP1;P2;durP2;ratioP2
21979;SDS011;11154;48.558;9.234;2024-02-04T00:00:05;3.00;;;0.98;;
21979;SDS011;11154;48.558;9.234;2024-02-04T00:02:09;0.95;;;0.88;;
21979;SDS011;11154;48.558;9.234;2024-02-04T00:04:14;0.80;;;0.80;;
21979;SDS011;11154;48.558;9.234;2024-02-04T00:06:15;1.00;;;0.90;;
21979;SDS011;11154;48.558;9.234;2024-02-04T00:08:17;1.33;;;1.00;;
21979;SDS011;11154;48.558;9.234;2024-02-04T00:10:18;0.85;;;0.82;;
21979;SDS011;11154;48.558;9.234;2024-02-04T00:12:20;1.27;;;0.90;;
21979;SDS011;11154;48.558;9.234;2024-02-04T00:14:21;1.25;;;1.00;;
21979;SDS011;11154;48.558;9.234;2024-02-04T00:16:23;0.95;;;0.93;;
21979;SDS011;11154;48.558;9.234;2024-02-04T00:18:26;1.00;;;0.80;;
21979;SDS011;11154;48.558;9.234;2024-02-04T00:20:27;1.42;;;1.00;;
21979;SDS011;11154;48.558;9.234;2024-02-04T00:22:29;2.55;;;0.90;;
21979;SDS011;11154;48.558;9.234;2024-02-04T00:24:30;1.20;;;1.10;;
21979;SDS011;11154;48.558;9.234;2024-02-04T00:26:31;1.20;;;1.08;;
21979;SDS011;11154;48.558;9.234;2024-02-04T00:28:33;1.15;;;0.80;;
21979;SDS011;11154;48.558;9.234;2024-02-04T00:30:34;1.20;;;0.95;;
21979;SDS011;11154;48.558;9.234;2024-02-04T00:32:36;0.70;;;0.70;;
21979;SDS011;11154;48.558;9.234;2024-02-04T00:34:39;0.90;;;0.90;;
21979;SDS011;11154;48.558;9.234;2024-02-04T00:36:40;0.88;;;0.85;;
21979;SDS011;11154;48.558;9.234;2024-02-04T00:38:41;0.75;;;0.52;;
21979;SDS011;11154;48.558;9.234;2024-02-04T00:40:43;2.22;;;1.00;;
21979;SDS011;11154;48.558;9.234;2024-02-04T00:42:44;2.15;;;1.05;;
21979;SDS011;11154;48.558;9.234;2024-02-04T00:44:46;1.00;;;0.90;;
21979;SDS011;11154;48.558;9.234;2024-02-04T00:46:48;1.38;;;1.05;;
21979;SDS011;11154;48.558;9.234;2024-02-04T00:48:49;0.63;;;0.63;;
21979;SDS011;11154;48.558;9.234;2024-02-04T00:50:52;1.02;;;0.80;;
21979;SDS011;11154;48.558;9.234;2024-02-04T00:52:54;1.10;;;0.80;;
21979;SDS011;11154;48.558;9.234;2024-02-04T00:54:55;1.65;;;0.77;;
21979;SDS011;11154;48.558;9.234;2024-02-04T00:56:57;1.38;;;0.90;;
21979;SDS011;11154;48.558;9.234;2024-02-04T00:59:00;1.85;;;1.00;;
21979;SDS011;11154;48.558;9.234;2024-02-04T01:01:01;1.20;;;0.73;;
21979;SDS011;11154;48.558;9.234;2024-02-04T01:03:03;0.98;;;0.88;;
21979;SDS011;11154;48.558;9.234;2024-02-04T01:05:05;0.93;;;0.82;;
21979;SDS011;11154;48.558;9.234;2024-02-04T01:07:09;1.05;;;0.95;;
21979;SDS011;11154;48.558;9.234;2024-02-04T01:09:10;0.95;;;0.90;;
21979;SDS011;11154;48.558;9.234;2024-02-04T01:11:11;1.00;;;0.90;;
21979;SDS011;11154;48.558;9.234;2024-02-04T01:13:13;0.85;;;0.82;;
21979;SDS011;11154;48.558;9.234;2024-02-04T01:15:15;1.13;;;0.70;;
21979;SDS011;11154;48.558;9.234;2024-02-04T01:17:16;1.40;;;0.90;;
21979;SDS011;11154;48.558;9.234;2024-02-04T01:19:18;0.68;;;0.68;;
21979;SDS011;11154;48.558;9.234;2024-02-04T01:21:19;1.17;;;1.08;;
21979;SDS011;11154;48.558;9.234;2024-02-04T01:23:23;1.10;;;1.00;;
21979;SDS011;11154;48.558;9.234;2024-02-04T01:25:24;1.13;;;1.00;;
21979;SDS011;11154;48.558;9.234;2024-02-04T01:27:25;0.70;;;0.70;;
21979;SDS011;11154;48.558;9.234;2024-02-04T01:29:26;1.95;;;0.70;;
21979;SDS011;11154;48.558;9.234;2024-02-04T01:31:27;1.38;;;1.10;;
21979;SDS011;11154;48.558;9.234;2024-02-04T01:33:29;1.15;;;0.88;;
21979;SDS011;11154;48.558;9.234;2024-02-04T01:35:30;1.80;;;1.00;;
21979;SDS011;11154;48.558;9.234;2024-02-04T01:37:32;0.60;;;0.55;;
21979;SDS011;11154;48.558;9.234;2024-02-04T01:39:34;0.85;;;0.80;;
21979;SDS011;11154;48.558;9.234;2024-02-04T01:41:36;1.15;;;1.05;;
21979;SDS011;11154;48.558;9.234;2024-02-04T01:43:38;2.22;;;0.95;;
21979;SDS011;11154;48.558;9.234;2024-02-04T01:45:39;1.02;;;0.90;;
21979;SDS011;11154;48.558;9.234;2024-02-04T01:47:40;1.30;;;1.10;;
21979;SDS011;11154;48.558;9.234;2024-02-04T01:49:42;1.23;;;0.95;;
21979;SDS011;11154;48.558;9.234;2024-02-04T01:51:44;1.27;;;1.08;;
21979;SDS011;11154;48.558;9.234;2024-02-04T01:53:46;1.55;;;1.00;;
21979;SDS011;11154;48.558;9.234;2024-02-04T01:55:49;2.40;;;2.00;;
21979;SDS011;11154;48.558;9.234;2024-02-04T01:57:51;1.25;;;0.95;;
21979;SDS011;11154;48.558;9.234;2024-02-04T01:59:52;1.55;;;1.10;;
21979;SDS011;11154;48.558;9.234;2024-02-04T02:01:56;1.20;;;1.10;;
21979;SDS011;11154;48.558;9.234;2024-02-04T02:03:59;1.25;;;1.15;;
21979;SDS011;11154;48.558;9.234;2024-02-04T02:06:02;1.77;;;1.30;;
21979;SDS011;11154;48.558;9.234;2024-02-04T02:08:05;1.10;;;1.00;;
21979;SDS011;11154;48.558;9.234;2024-02-04T02:10:07;1.50;;;1.40;;
21979;SDS011;11154;48.558;9.234;2024-02-04T02:12:13;1.33;;;1.23;;
21979;SDS011;11154;48.558;9.234;2024-02-04T02:14:20;1.58;;;1.48;;
21979;SDS011;11154;48.558;9.234;2024-02-04T02:16:27;1.60;;;1.40;;
21979;SDS011;11154;48.558;9.234;2024-02-04T02:18:35;1.50;;;1.40;;
21979;SDS011;11154;48.558;9.234;2024-02-04T02:20:41;1.35;;;1.20;;
21979;SDS011;11154;48.558;9.234;2024-02-04T02:23:06;1.30;;;1.20;;
21979;SDS011;11154;48.558;9.234;2024-02-04T02:25:09;1.50;;;1.40;;
21979;SDS011;11154;48.558;9.234;2024-02-04T02:27:11;1.30;;;1.20;;
21979;SDS011;11154;48.558;9.234;2024-02-04T02:29:13;1.98;;;1.35;;
21979;SDS011;11154;48.558;9.234;2024-02-04T02:31:15;1.40;;;1.30;;
21979;SDS011;11154;48.558;9.234;2024-02-04T02:33:16;1.13;;;1.02;;
21979;SDS011;11154;48.558;9.234;2024-02-04T02:35:18;1.50;;;1.40;;
21979;SDS011;11154;48.558;9.234;2024-02-04T02:37:22;1.20;;;1.10;;
21979;SDS011;11154;48.558;9.234;2024-02-04T02:39:29;1.30;;;1.20;;
21979;SDS011;11154;48.558;9.234;2024-02-04T02:41:36;1.10;;;1.00;;
21979;SDS011;11154;48.558;9.234;2024-02-04T02:43:40;1.27;;;1.17;;
21979;SDS011;11154;48.558;9.234;2024-02-04T02:45:44;0.98;;;0.93;;
21979;SDS011;11154;48.558;9.234;2024-02-04T02:47:47;1.25;;;1.15;;
21979;SDS011;11154;48.558;9.234;2024-02-04T02:49:50;1.50;;;1.40;;
21979;SDS011;11154;48.558;9.234;2024-02-04T02:51:52;1.20;;;1.10;;
21979;SDS011;11154;48.558;9.234;2024-02-04T02:53:54;1.25;;;1.10;;
21979;SDS011;11154;48.558;9.234;2024-02-04T02:55:55;1.23;;;1.10;;
21979;SDS011;11154;48.558;9.234;2024-02-04T02:57:58;1.23;;;1.13;;
21979;SDS011;11154;48.558;9.234;2024-02-04T03:00:00;1.10;;;1.00;;
21979;SDS011;11154;48.558;9.234;2024-02-04T03:02:02;1.25;;;1.15;;
21979;SDS011;11154;48.558;9.234;2024-02-04T03:04:03;1.50;;;1.20;;
21979;SDS011;11154;48.558;9.234;2024-02-04T03:06:04;1.40;;;1.30;;
21979;SDS011;11154;48.558;9.234;2024-02-04T03:08:06;1.20;;;1.10;;
21979;SDS011;11154;48.558;9.234;2024-02-04T03:10:08;0.95;;;0.95;;
21979;SDS011;11154;48.558;9.234;2024-02-04T03:12:10;1.10;;;1.00;;
21979;SDS011;11154;48.558;9.234;2024-02-04T03:14:13;1.23;;;1.10;;
21979;SDS011;11154;48.558;9.234;2024-02-04T03:16:17;1.13;;;1.02;;
21979;SDS011;11154;48.558;9.234;2024-02-04T03:18:18;0.80;;;0.80;;
21979;SDS011;11154;48.558;9.234;2024-02-04T03:20:20;1.17;;;1.08;;
21979;SDS011;11154;48.558;9.234;2024-02-04T03:22:21;0.98;;;0.90;;
21979;SDS011;11154;48.558;9.234;2024-02-04T03:24:22;1.65;;;0.95;;
21979;SDS011;11154;48.558;9.234;2024-02-04T03:26:24;0.90;;;0.80;;
21979;SDS011;11154;48.558;9.234;2024-02-04T03:28:26;1.10;;;1.00;;
21979;SDS011;11154;48.558;9.234;2024-02-04T03:30:28;0.93;;;0.90;;
21979;SDS011;11154;48.558;9.234;2024-02-04T03:32:30;1.58;;;1.08;;
21979;SDS011;11154;48.558;9.234;2024-02-04T03:34:33;1.10;;;1.00;;
21979;SDS011;11154;48.558;9.234;2024-02-04T03:36:36;0.90;;;0.90;;
21979;SDS011;11154;48.558;9.234;2024-02-04T03:38:38;0.73;;;0.73;;
21979;SDS011;11154;48.558;9.234;2024-02-04T03:40:40;1.50;;;0.90;;
21979;SDS011;11154;48.558;9.234;2024-02-04T03:42:42;0.80;;;0.80;;
21979;SDS011;11154;48.558;9.234;2024-02-04T03:44:44;0.85;;;0.85;;
21979;SDS011;11154;48.558;9.234;2024-02-04T03:46:48;1.00;;;0.90;;
21979;SDS011;11154;48.558;9.234;2024-02-04T03:48:51;0.90;;;0.90;;
21979;SDS011;11154;48.558;9.234;2024-02-04T03:50:53;1.20;;;0.80;;
21979;SDS011;11154;48.558;9.234;2024-02-04T03:52:54;0.70;;;0.70;;
21979;SDS011;11154;48.558;9.234;2024-02-04T03:54:56;1.00;;;0.90;;
21979;SDS011;11154;48.558;9.234;2024-02-04T03:56:59;1.30;;;1.20;;
21979;SDS011;11154;48.558;9.234;2024-02-04T03:59:01;2.65;;;1.98;;
21979;SDS011;11154;48.558;9.234;2024-02-04T04:01:03;0.88;;;0.75;;
21979;SDS011;11154;48.558;9.234;2024-02-04T04:03:06;1.33;;;0.93;;
21979;SDS011;11154;48.558;9.234;2024-02-04T04:05:10;1.33;;;0.80;;
21979;SDS011;11154;48.558;9.234;2024-02-04T04:07:12;0.93;;;0.57;;
21979;SDS011;11154;48.558;9.234;2024-02-04T04:09:14;0.80;;;0.80;;
21979;SDS011;11154;48.558;9.234;2024-02-04T04:11:15;0.52;;;0.52;;
21979;SDS011;11154;48.558;9.234;2024-02-04T04:13:17;0.65;;;0.60;;
21979;SDS011;11154;48.558;9.234;2024-02-04T04:15:19;0.73;;;0.73;;
21979;SDS011;11154;48.558;9.234;2024-02-04T04:17:20;1.02;;;0.60;;
21979;SDS011;11154;48.558;9.234;2024-02-04T04:19:22;0.75;;;0.75;;
21979;SDS011;11154;48.558;9.234;2024-02-04T04:21:24;0.40;;;0.40;;
21979;SDS011;11154;48.558;9.234;2024-02-04T04:23:26;0.68;;;0.68;;
21979;SDS011;11154;48.558;9.234;2024-02-04T04:25:27;0.60;;;0.60;;
21979;SDS011;11154;48.558;9.234;2024-02-04T04:27:29;0.77;;;0.63;;
21979;SDS011;11154;48.558;9.234;2024-02-04T04:29:31;1.02;;;0.70;;
21979;SDS011;11154;48.558;9.234;2024-02-04T04:31:32;0.68;;;0.50;;
21979;SDS011;11154;48.558;9.234;2024-02-04T04:33:35;0.60;;;0.60;;
21979;SDS011;11154;48.558;9.234;2024-02-04T04:35:37;0.60;;;0.55;;
21979;SDS011;11154;48.558;9.234;2024-02-04T04:37:39;0.65;;;0.65;;
21979;SDS011;11154;48.558;9.234;2024-02-04T04:39:40;0.60;;;0.60;;
21979;SDS011;11154;48.558;9.234;2024-02-04T04:41:43;0.32;;;0.32;;
21979;SDS011;11154;48.558;9.234;2024-02-04T04:43:45;2.28;;;0.50;;
21979;SDS011;11154;48.558;9.234;2024-02-04T04:45:46;0.57;;;0.55;;
21979;SDS011;11154;48.558;9.234;2024-02-04T04:47:48;0.50;;;0.50;;
21979;SDS011;11154;48.558;9.234;2024-02-04T04:49:49;0.70;;;0.50;;
21979;SDS011;11154;48.558;9.234;2024-02-04T04:51:52;0.43;;;0.43;;
21979;SDS011;11154;48.558;9.234;2024-02-04T04:53:53;0.60;;;0.60;;
21979;SDS011;11154;48.558;9.234;2024-02-04T04:55:54;0.40;;;0.40;;
21979;SDS011;11154;48.558;9.234;2024-02-04T04:57:55;1.23;;;0.52;;
21979;SDS011;11154;48.558;9.234;2024-02-04T04:59:57;0.60;;;0.60;;
21979;SDS011;11154;48.558;9.234;2024-02-04T05:02:04;0.98;;;0.63;;
21979;SDS011;11154;48.558;9.234;2024-02-04T05:04:06;0.47;;;0.45;;
21979;SDS011;11154;48.558;9.234;2024-02-04T05:06:07;0.57;;;0.50;;
21979;SDS011;11154;48.558;9.234;2024-02-04T05:08:11;0.55;;;0.52;;
21979;SDS011;11154;48.558;9.234;2024-02-04T05:10:13;2.83;;;0.60;;
21979;SDS011;11154;48.558;9.234;2024-02-04T05:12:14;1.25;;;1.10;;
21979;SDS011;11154;48.558;9.234;2024-02-04T05:14:16;2.25;;;1.08;;
21979;SDS011;11154;48.558;9.234;2024-02-04T05:16:17;0.90;;;0.60;;
21979;SDS011;11154;48.558;9.234;2024-02-04T05:18:19;1.13;;;0.63;;
21979;SDS011;11154;48.558;9.234;2024-02-04T05:20:21;0.35;;;0.35;;
21979;SDS011;11154;48.558;9.234;2024-02-04T05:22:22;0.45;;;0.40;;
21979;SDS011;11154;48.558;9.234;2024-02-04T05:24:24;0.70;;;0.65;;
21979;SDS011;11154;48.558;9.234;2024-02-04T05:26:26;0.52;;;0.50;;
21979;SDS011;11154;48.558;9.234;2024-02-04T05:28:27;0.77;;;0.50;;
21979;SDS011;11154;48.558;9.234;2024-02-04T05:30:29;0.90;;;0.63;;
21979;SDS011;11154;48.558;9.234;2024-02-04T05:32:29;0.40;;;0.40;;
21979;SDS011;11154;48.558;9.234;2024-02-04T05:34:31;0.82;;;0.63;;
21979;SDS011;11154;48.558;9.234;2024-02-04T05:36:34;0.57;;;0.50;;
21979;SDS011;11154;48.558;9.234;2024-02-04T05:38:36;0.50;;;0.50;;
21979;SDS011;11154;48.558;9.234;2024-02-04T05:40:39;0.98;;;0.63;;
21979;SDS011;11154;48.558;9.234;2024-02-04T05:42:40;0.40;;;0.40;;
21979;SDS011;11154;48.558;9.234;2024-02-04T05:44:42;1.92;;;0.68;;
21979;SDS011;11154;48.558;9.234;2024-02-04T05:46:44;1.30;;;1.20;;
21979;SDS011;11154;48.558;9.234;2024-02-04T05:48:44;2.33;;;1.70;;
21979;SDS011;11154;48.558;9.234;2024-02-04T05:50:46;3.25;;;1.52;;
21979;SDS011;11154;48.558;9.234;2024-02-04T05:52:48;2.05;;;1.50;;
21979;SDS011;11154;48.558;9.234;2024-02-04T05:54:50;2.00;;;1.67;;
21979;SDS011;11154;48.558;9.234;2024-02-04T05:56:53;1.33;;;1.10;;
21979;SDS011;11154;48.558;9.234;2024-02-04T05:58:54;1.33;;;0.82;;
21979;SDS011;11154;48.558;9.234;2024-02-04T06:00:56;1.77;;;0.82;;
21979;SDS011;11154;48.558;9.234;2024-02-04T06:02:57;0.77;;;0.60;;
21979;SDS011;11154;48.558;9.234;2024-02-04T06:04:59;0.82;;;0.80;;
21979;SDS011;11154;48.558;9.234;2024-02-04T06:07:00;0.80;;;0.80;;
21979;SDS011;11154;48.558;9.234;2024-02-04T06:09:01;1.33;;;0.75;;
21979;SDS011;11154;48.558;9.234;2024-02-04T06:11:03;1.00;;;0.90;;
21979;SDS011;11154;48.558;9.234;2024-02-04T06:13:06;1.05;;;0.80;;
21979;SDS011;11154;48.558;9.234;2024-02-04T06:15:11;0.65;;;0.60;;
21979;SDS011;11154;48.558;9.234;2024-02-04T06:17:14;1.23;;;0.98;;
21979;SDS011;11154;48.558;9.234;2024-02-04T06:19:15;0.70;;;0.50;;
21979;SDS011;11154;48.558;9.234;2024-02-04T06:21:17;0.88;;;0.57;;
21979;SDS011;11154;48.558;9.234;2024-02-04T06:23:18;0.90;;;0.70;;
21979;SDS011;11154;48.558;9.234;2024-02-04T06:25:20;0.50;;;0.50;;
21979;SDS011;11154;48.558;9.234;2024-02-04T06:27:21;0.88;;;0.57;;
21979;SDS011;11154;48.558;9.234;2024-02-04T06:29:24;0.52;;;0.52;;
21979;SDS011;11154;48.558;9.234;2024-02-04T06:31:25;0.43;;;0.43;;
21979;SDS011;11154;48.558;9.234;2024-02-04T06:33:26;0.57;;;0.52;;
21979;SDS011;11154;48.558;9.234;2024-02-04T06:35:27;2.00;;;0.40;;
21979;SDS011;11154;48.558;9.234;2024-02-04T06:37:29;1.25;;;0.50;;
21979;SDS011;11154;48.558;9.234;2024-02-04T06:39:31;1.05;;;0.50;;
21979;SDS011;11154;48.558;9.234;2024-02-04T06:41:32;0.40;;;0.40;;
21979;SDS011;11154;48.558;9.234;2024-02-04T06:43:36;0.70;;;0.52;;
21979;SDS011;11154;48.558;9.234;2024-02-04T06:45:38;1.05;;;0.70;;
21979;SDS011;11154;48.558;9.234;2024-02-04T06:47:42;0.40;;;0.40;;
21979;SDS011;11154;48.558;9.234;2024-02-04T06:49:45;0.40;;;0.40;;
21979;SDS011;11154;48.558;9.234;2024-02-04T06:51:45;0.70;;;0.60;;
21979;SDS011;11154;48.558;9.234;2024-02-04T06:53:47;0.40;;;0.28;;
21979;SDS011;11154;48.558;9.234;2024-02-04T06:55:49;0.80;;;0.50;;
21979;SDS011;11154;48.558;9.234;2024-02-04T06:57:51;1.15;;;0.52;;
21979;SDS011;11154;48.558;9.234;2024-02-04T06:59:52;0.50;;;0.50;;
21979;SDS011;11154;48.558;9.234;2024-02-04T07:01:55;2.85;;;0.73;;
21979;SDS011;11154;48.558;9.234;2024-02-04T07:03:57;1.55;;;0.70;;
21979;SDS011;11154;48.558;9.234;2024-02-04T07:05:59;0.93;;;0.50;;
21979;SDS011;11154;48.558;9.234;2024-02-04T07:08:00;0.85;;;0.50;;
21979;SDS011;11154;48.558;9.234;2024-02-04T07:10:02;0.73;;;0.57;;
21979;SDS011;11154;48.558;9.234;2024-02-04T07:12:04;0.63;;;0.50;;
21979;SDS011;11154;48.558;9.234;2024-02-04T07:14:06;2.85;;;0.50;;
21979;SDS011;11154;48.558;9.234;2024-02-04T07:16:08;0.55;;;0.40;;
21979;SDS011;11154;48.558;9.234;2024-02-04T07:18:11;0.70;;;0.45;;
21979;SDS011;11154;48.558;9.234;2024-02-04T07:20:13;0.50;;;0.50;;
21979;SDS011;11154;48.558;9.234;2024-02-04T07:22:14;0.52;;;0.50;;
21979;SDS011;11154;48.558;9.234;2024-02-04T07:24:16;2.15;;;0.70;;
21979;SDS011;11154;48.558;9.234;2024-02-04T07:26:18;0.80;;;0.55;;
21979;SDS011;11154;48.558;9.234;2024-02-04T07:28:20;1.35;;;0.55;;
21979;SDS011;11154;48.558;9.234;2024-02-04T07:30:22;0.60;;;0.43;;
21979;SDS011;11154;48.558;9.234;2024-02-04T07:32:23;1.60;;;0.60;;
21979;SDS011;11154;48.558;9.234;2024-02-04T07:34:26;0.80;;;0.40;;
21979;SDS011;11154;48.558;9.234;2024-02-04T07:36:28;0.75;;;0.50;;
21979;SDS011;11154;48.558;9.234;2024-02-04T07:38:30;0.30;;;0.30;;
21979;SDS011;11154;48.558;9.234;2024-02-04T07:40:31;0.82;;;0.52;;
21979;SDS011;11154;48.558;9.234;2024-02-04T07:42:33;1.17;;;0.60;;
21979;SDS011;11154;48.558;9.234;2024-02-04T07:44:34;1.15;;;0.80;;
21979;SDS011;11154;48.558;9.234;2024-02-04T07:46:36;1.75;;;0.60;;
21979;SDS011;11154;48.558;9.234;2024-02-04T07:48:38;0.50;;;0.50;;
21979;SDS011;11154;48.558;9.234;2024-02-04T07:50:41;0.68;;;0.63;;
21979;SDS011;11154;48.558;9.234;2024-02-04T07:52:42;0.65;;;0.55;;
21979;SDS011;11154;48.558;9.234;2024-02-04T07:54:44;1.05;;;0.68;;
21979;SDS011;11154;48.558;9.234;2024-02-04T07:56:46;0.80;;;0.63;;
21979;SDS011;11154;48.558;9.234;2024-02-04T07:58:47;1.15;;;0.50;;
21979;SDS011;11154;48.558;9.234;2024-02-04T08:00:49;0.98;;;0.88;;
21979;SDS011;11154;48.558;9.234;2024-02-04T08:02:51;1.90;;;0.70;;
21979;SDS011;11154;48.558;9.234;2024-02-04T08:04:52;0.85;;;0.77;;
21979;SDS011;11154;48.558;9.234;2024-02-04T08:06:55;2.10;;;0.70;;
21979;SDS011;11154;48.558;9.234;2024-02-04T08:08:56;0.70;;;0.57;;
21979;SDS011;11154;48.558;9.234;2024-02-04T08:10:58;1.42;;;0.73;;
21979;SDS011;11154;48.558;9.234;2024-02-04T08:12:59;1.75;;;0.68;;
21979;SDS011;11154;48.558;9.234;2024-02-04T08:15:01;1.65;;;0.80;;
21979;SDS011;11154;48.558;9.234;2024-02-04T08:17:02;0.85;;;0.75;;
21979;SDS011;11154;48.558;9.234;2024-02-04T08:19:04;1.42;;;0.80;;
21979;SDS011;11154;48.558;9.234;2024-02-04T08:21:06;1.65;;;0.60;;
21979;SDS011;11154;48.558;9.234;2024-02-04T08:23:09;2.38;;;0.95;;
21979;SDS011;11154;48.558;9.234;2024-02-04T08:25:11;1.20;;;0.65;;
21979;SDS011;11154;48.558;9.234;2024-02-04T08:27:11;0.90;;;0.70;;
21979;SDS011;11154;48.558;9.234;2024-02-04T08:29:16;0.98;;;0.88;;
21979;SDS011;11154;48.558;9.234;2024-02-04T08:31:17;0.50;;;0.50;;
21979;SDS011;11154;48.558;9.234;2024-02-04T08:33:19;2.05;;;0.60;;
21979;SDS011;11154;48.558;9.234;2024-02-04T08:35:19;1.42;;;0.80;;
21979;SDS011;11154;48.558;9.234;2024-02-04T08:37:21;1.23;;;0.80;;
21979;SDS011;11154;48.558;9.234;2024-02-04T08:39:24;0.82;;;0.75;;
21979;SDS011;11154;48.558;9.234;2024-02-04T08:41:26;1.30;;;0.60;;
21979;SDS011;11154;48.558;9.234;2024-02-04T08:43:28;2.05;;;0.60;;
21979;SDS011;11154;48.558;9.234;2024-02-04T08:45:29;1.45;;;0.90;;
21979;SDS011;11154;48.558;9.234;2024-02-04T08:47:31;0.88;;;0.70;;
21979;SDS011;11154;48.558;9.234;2024-02-04T08:49:33;0.80;;;0.60;;
21979;SDS011;11154;48.558;9.234;2024-02-04T08:51:34;3.13;;;0.70;;
21979;SDS011;11154;48.558;9.234;2024-02-04T08:53:36;2.00;;;0.55;;
21979;SDS011;11154;48.558;9.234;2024-02-04T08:55:39;1.63;;;1.08;;
21979;SDS011;11154;48.558;9.234;2024-02-04T08:57:41;2.65;;;0.80;;
21979;SDS011;11154;48.558;9.234;2024-02-04T08:59:42;2.22;;;0.70;;
21979;SDS011;11154;48.558;9.234;2024-02-04T09:01:44;2.42;;;0.77;;
21979;SDS011;11154;48.558;9.234;2024-02-04T09:03:45;2.00;;;0.60;;
21979;SDS011;11154;48.558;9.234;2024-02-04T09:05:47;1.20;;;0.70;;
21979;SDS011;11154;48.558;9.234;2024-02-04T09:07:48;1.35;;;0.77;;
21979;SDS011;11154;48.558;9.234;2024-02-04T09:09:49;1.05;;;0.70;;
21979;SDS011;11154;48.558;9.234;2024-02-04T09:11:52;3.35;;;0.90;;
21979;SDS011;11154;48.558;9.234;2024-02-04T09:13:54;1.52;;;0.45;;
21979;SDS011;11154;48.558;9.234;2024-02-04T09:15:55;4.60;;;0.90;;
21979;SDS011;11154;48.558;9.234;2024-02-04T09:17:57;0.50;;;0.50;;
21979;SDS011;11154;48.558;9.234;2024-02-04T09:19:59;1.23;;;0.73;;
21979;SDS011;11154;48.558;9.234;2024-02-04T09:22:00;1.48;;;0.60;;
21979;SDS011;11154;48.558;9.234;2024-02-04T09:24:02;0.63;;;0.50;;
21979;SDS011;11154;48.558;9.234;2024-02-04T09:26:04;1.33;;;0.52;;
21979;SDS011;11154;48.558;9.234;2024-02-04T09:28:07;1.35;;;0.82;;
21979;SDS011;11154;48.558;9.234;2024-02-04T09:30:09;0.98;;;0.68;;
21979;SDS011;11154;48.558;9.234;2024-02-04T09:32:11;1.20;;;0.30;;
21979;SDS011;11154;48.558;9.234;2024-02-04T09:34:13;0.98;;;0.55;;
21979;SDS011;11154;48.558;9.234;2024-02-04T09:36:14;0.35;;;0.30;;
21979;SDS011;11154;48.558;9.234;2024-02-04T09:38:16;0.40;;;0.40;;
21979;SDS011;11154;48.558;9.234;2024-02-04T09:40:17;3.60;;;0.63;;
21979;SDS011;11154;48.558;9.234;2024-02-04T09:42:19;0.52;;;0.40;;
21979;SDS011;11154;48.558;9.234;2024-02-04T09:44:23;0.90;;;0.40;;
21979;SDS011;11154;48.558;9.234;2024-02-04T09:46:25;0.85;;;0.50;;
21979;SDS011;11154;48.558;9.234;2024-02-04T09:48:28;0.32;;;0.20;;
21979;SDS011;11154;48.558;9.234;2024-02-04T09:50:32;0.98;;;0.40;;
21979;SDS011;11154;48.558;9.234;2024-02-04T09:52:34;0.25;;;0.25;;
21979;SDS011;11154;48.558;9.234;2024-02-04T09:54:42;0.70;;;0.30;;
21979;SDS011;11154;48.558;9.234;2024-02-04T09:56:45;0.32;;;0.28;;
21979;SDS011;11154;48.558;9.234;2024-02-04T09:58:47;1.17;;;0.32;;
21979;SDS011;11154;48.558;9.234;2024-02-04T10:00:54;1.95;;;0.45;;
21979;SDS011;11154;48.558;9.234;2024-02-04T10:02:56;0.98;;;0.30;;
21979;SDS011;11154;48.558;9.234;2024-02-04T10:04:58;1.00;;;0.50;;
21979;SDS011;11154;48.558;9.234;2024-02-04T10:06:59;1.70;;;0.40;;
21979;SDS011;11154;48.558;9.234;2024-02-04T10:09:02;0.68;;;0.30;;
21979;SDS011;11154;48.558;9.234;2024-02-04T10:11:03;1.13;;;0.30;;
21979;SDS011;11154;48.558;9.234;2024-02-04T10:13:06;0.93;;;0.35;;
21979;SDS011;11154;48.558;9.234;2024-02-04T10:15:08;0.47;;;0.28;;
21979;SDS011;11154;48.558;9.234;2024-02-04T10:17:14;0.40;;;0.20;;
21979;SDS011;11154;48.558;9.234;2024-02-04T10:19:16;1.02;;;0.30;;
21979;SDS011;11154;48.558;9.234;2024-02-04T10:21:18;0.35;;;0.30;;
21979;SDS011;11154;48.558;9.234;2024-02-04T10:23:21;0.35;;;0.17;;
21979;SDS011;11154;48.558;9.234;2024-02-04T10:25:22;0.95;;;0.40;;
21979;SDS011;11154;48.558;9.234;2024-02-04T10:27:23;0.35;;;0.20;;
21979;SDS011;11154;48.558;9.234;2024-02-04T10:29:26;0.95;;;0.40;;
21979;SDS011;11154;48.558;9.234;2024-02-04T10:31:27;1.02;;;0.30;;
21979;SDS011;11154;48.558;9.234;2024-02-04T10:33:31;0.63;;;0.20;;
21979;SDS011;11154;48.558;9.234;2024-02-04T10:35:32;0.38;;;0.32;;
21979;SDS011;11154;48.558;9.234;2024-02-04T10:37:34;1.27;;;0.40;;
21979;SDS011;11154;48.558;9.234;2024-02-04T10:39:34;1.17;;;0.30;;
21979;SDS011;11154;48.558;9.234;2024-02-04T10:41:36;0.73;;;0.32;;
21979;SDS011;11154;48.558;9.234;2024-02-04T10:43:45;0.50;;;0.30;;
21979;SDS011;11154;48.558;9.234;2024-02-04T10:45:46;0.35;;;0.20;;
21979;SDS011;11154;48.558;9.234;2024-02-04T10:47:50;0.80;;;0.38;;
21979;SDS011;11154;48.558;9.234;2024-02-04T10:49:58;1.33;;;0.50;;
21979;SDS011;11154;48.558;9.234;2024-02-04T10:52:03;4.20;;;0.50;;
21979;SDS011;11154;48.558;9.234;2024-02-04T10:54:08;0.70;;;0.38;;
21979;SDS011;11154;48.558;9.234;2024-02-04T10:56:13;0.50;;;0.40;;
21979;SDS011;11154;48.558;9.234;2024-02-04T10:58:19;0.57;;;0.32;;
21979;SDS011;11154;48.558;9.234;2024-02-04T11:00:21;0.70;;;0.40;;
21979;SDS011;11154;48.558;9.234;2024-02-04T11:02:23;2.80;;;0.30;;
21979;SDS011;11154;48.558;9.234;2024-02-04T11:04:26;1.20;;;0.35;;
21979;SDS011;11154;48.558;9.234;2024-02-04T11:06:31;0.95;;;0.50;;
21979;SDS011;11154;48.558;9.234;2024-02-04T11:08:33;1.08;;;0.20;;
21979;SDS011;11154;48.558;9.234;2024-02-04T11:10:35;0.30;;;0.30;;
21979;SDS011;11154;48.558;9.234;2024-02-04T11:12:38;0.30;;;0.30;;
21979;SDS011;11154;48.558;9.234;2024-02-04T11:14:42;0.80;;;0.20;;
21979;SDS011;11154;48.558;9.234;2024-02-04T11:16:55;0.30;;;0.30;;
21979;SDS011;11154;48.558;9.234;2024-02-04T11:19:23;0.75;;;0.20;;
21979;SDS011;11154;48.558;9.234;2024-02-04T11:21:45;0.22;;;0.22;;
21979;SDS011;11154;48.558;9.234;2024-02-04T11:24:05;1.02;;;0.45;;
21979;SDS011;11154;48.558;9.234;2024-02-04T11:26:17;1.08;;;0.50;;
21979;SDS011;11154;48.558;9.234;2024-02-04T11:28:20;1.08;;;0.30;;
21979;SDS011;11154;48.558;9.234;2024-02-04T11:30:22;0.47;;;0.20;;
21979;SDS011;11154;48.558;9.234;2024-02-04T11:32:24;0.20;;;0.20;;
21979;SDS011;11154;48.558;9.234;2024-02-04T11:34:25;0.30;;;0.30;;
21979;SDS011;11154;48.558;9.234;2024-02-04T11:36:27;1.20;;;0.20;;
21979;SDS011;11154;48.558;9.234;2024-02-04T11:38:31;0.63;;;0.20;;
21979;SDS011;11154;48.558;9.234;2024-02-04T11:40:34;0.35;;;0.25;;
21979;SDS011;11154;48.558;9.234;2024-02-04T11:42:37;0.47;;;0.20;;
21979;SDS011;11154;48.558;9.234;2024-02-04T11:44:39;2.17;;;0.38;;
21979;SDS011;11154;48.558;9.234;2024-02-04T11:46:45;0.30;;;0.22;;
21979;SDS011;11154;48.558;9.234;2024-02-04T11:48:51;0.28;;;0.10;;
21979;SDS011;11154;48.558;9.234;2024-02-04T11:50:54;0.57;;;0.35;;
21979;SDS011;11154;48.558;9.234;2024-02-04T11:53:04;0.20;;;0.15;;
21979;SDS011;11154;48.558;9.234;2024-02-04T11:55:12;0.22;;;0.17;;
21979;SDS011;11154;48.558;9.234;2024-02-04T11:57:15;1.40;;;0.40;;
21979;SDS011;11154;48.558;9.234;2024-02-04T11:59:17;0.82;;;0.32;;
21979;SDS011;11154;48.558;9.234;2024-02-04T12:01:21;1.75;;;0.30;;
21979;SDS011;11154;48.558;9.234;2024-02-04T12:03:29;1.73;;;0.30;;
21979;SDS011;11154;48.558;9.234;2024-02-04T12:05:31;1.02;;;0.50;;
21979;SDS011;11154;48.558;9.234;2024-02-04T12:07:34;1.63;;;0.50;;
21979;SDS011;11154;48.558;9.234;2024-02-04T12:09:36;0.45;;;0.20;;
21979;SDS011;11154;48.558;9.234;2024-02-04T12:11:39;0.20;;;0.20;;
21979;SDS011;11154;48.558;9.234;2024-02-04T12:13:41;0.95;;;0.32;;
21979;SDS011;11154;48.558;9.234;2024-02-04T12:15:45;0.55;;;0.22;;
21979;SDS011;11154;48.558;9.234;2024-02-04T12:17:46;0.75;;;0.10;;